Time;durP1;ratioP1;P1;durP2;ratioP2;P2;SDS_P1;SDS_P2;PMS_P1;PMS_P2;Temp;Humidity;BMP_temperature;BMP_pressure;BME280_temperature;BME280_humidity;BME280_pressure;Samples;Min_cycle;Max_cycle;Signal;HPM_P1;HPM_P2
2023/12/30 00:02:05;;;;;;;19.35;8.95;;;4.90;72.50;;;;;;5011512;28;20088;-60
2023/12/30 00:04:31;;;;;;;17.88;9.32;;;4.90;72.50;;;;;;4998994;28;20373;-60
2023/12/30 00:06:57;;;;;;;19.75;8.68;;;4.90;72.40;;;;;;5003456;28;20034;-59
2023/12/30 00:09:22;;;;;;;20.73;8.95;;;4.90;72.30;;;;;;5001393;28;20543;-59
2023/12/30 00:11:49;;;;;;;18.20;7.53;;;4.80;72.20;;;;;;5005161;28;20022;-60
2023/12/30 00:14:15;;;;;;;14.57;6.00;;;4.90;72.40;;;;;;5005250;28;20030;-58
2023/12/30 00:16:41;;;;;;;12.32;6.00;;;4.90;72.50;;;;;;4986140;28;20081;-60
2023/12/30 00:19:08;;;;;;;17.48;7.10;;;4.90;72.70;;;;;;5004506;28;20032;-59
2023/12/30 00:21:34;;;;;;;21.08;7.93;;;4.90;72.60;;;;;;5002631;28;20076;-59
2023/12/30 00:23:59;;;;;;;19.40;7.38;;;4.90;72.70;;;;;;5005890;28;20030;-60
2023/12/30 00:26:26;;;;;;;16.90;6.22;;;4.80;72.70;;;;;;4999138;28;20021;-60
2023/12/30 00:28:53;;;;;;;11.15;5.15;;;4.90;72.90;;;;;;5005639;28;20060;-60
2023/12/30 00:31:26;;;;;;;11.32;4.25;;;4.80;73.00;;;;;;5006726;28;20088;-59
2023/12/30 00:33:56;;;;;;;9.25;3.65;;;4.90;73.50;;;;;;4999604;28;20502;-60
2023/12/30 00:36:22;;;;;;;9.20;3.30;;;4.90;73.50;;;;;;5004662;28;20036;-59
2023/12/30 00:38:48;;;;;;;8.13;2.67;;;4.90;73.40;;;;;;4997218;28;20057;-59
2023/12/30 00:41:13;;;;;;;7.10;2.97;;;4.90;73.50;;;;;;5002148;28;20540;-59
2023/12/30 00:43:42;;;;;;;5.13;2.20;;;4.90;73.60;;;;;;5003843;28;20088;-59
2023/12/30 00:46:08;;;;;;;5.03;2.53;;;4.90;73.70;;;;;;4922542;28;20531;-59
2023/12/30 00:48:34;;;;;;;6.13;2.33;;;5.10;73.70;;;;;;5002647;28;20116;-60
2023/12/30 00:51:01;;;;;;;3.15;2.13;;;5.10;74.50;;;;;;5002569;28;20109;-59
2023/12/30 00:53:27;;;;;;;5.78;2.20;;;4.90;74.10;;;;;;5003023;28;20622;-59
2023/12/30 00:55:54;;;;;;;4.88;2.28;;;5.00;74.10;;;;;;5002939;28;20504;-59
2023/12/30 00:58:23;;;;;;;4.43;2.10;;;5.00;74.40;;;;;;5004106;28;20068;-60
2023/12/30 01:00:51;;;;;;;6.97;1.80;;;5.00;74.60;;;;;;5002552;28;20030;-60
2023/12/30 01:03:17;;;;;;;4.13;1.90;;;5.10;74.60;;;;;;5003901;28;20485;-58
2023/12/30 01:05:44;;;;;;;2.80;1.77;;;5.10;75.00;;;;;;5002520;28;20044;-61
2023/12/30 01:08:10;;;;;;;4.47;1.70;;;5.10;74.40;;;;;;4987420;28;20062;-61
2023/12/30 01:10:36;;;;;;;4.45;2.10;;;5.10;74.30;;;;;;5012144;28;20056;-59
2023/12/30 01:13:03;;;;;;;2.83;1.60;;;5.20;74.30;;;;;;5006734;28;20483;-60
2023/12/30 01:15:28;;;;;;;2.85;1.63;;;5.20;74.20;;;;;;5000478;28;20033;-60
2023/12/30 01:17:54;;;;;;;6.05;1.90;;;5.20;74.10;;;;;;5001018;28;20022;-60
2023/12/30 01:20:20;;;;;;;3.63;1.75;;;5.20;74.10;;;;;;4997757;28;20079;-58
2023/12/30 01:22:45;;;;;;;3.20;1.80;;;5.20;74.10;;;;;;4995725;28;20076;-59
2023/12/30 01:25:11;;;;;;;1.90;1.58;;;5.20;74.10;;;;;;5001031;28;20546;-60
2023/12/30 01:27:36;;;;;;;5.07;2.03;;;5.20;74.00;;;;;;5002449;28;20049;-60
2023/12/30 01:30:02;;;;;;;1.77;1.52;;;5.20;74.10;;;;;;5002909;28;20385;-59
2023/12/30 01:32:28;;;;;;;1.75;1.50;;;5.20;74.00;;;;;;5006477;28;20378;-60
2023/12/30 01:34:53;;;;;;;3.97;1.92;;;5.20;73.80;;;;;;5003409;28;20060;-59
2023/12/30 01:37:19;;;;;;;4.68;1.63;;;5.20;73.80;;;;;;4997204;28;20038;-60
2023/12/30 01:39:45;;;;;;;4.97;1.85;;;5.20;73.90;;;;;;5005615;28;20029;-61
2023/12/30 01:42:11;;;;;;;3.03;1.80;;;5.20;74.00;;;;;;5003172;28;20445;-59
2023/12/30 01:44:37;;;;;;;3.50;1.90;;;5.20;73.80;;;;;;5001367;28;20045;-58
2023/12/30 01:47:04;;;;;;;2.40;1.73;;;5.20;73.80;;;;;;4890048;28;20030;-60
2023/12/30 01:49:30;;;;;;;3.05;1.95;;;5.20;73.70;;;;;;5006727;28;20587;-60
2023/12/30 01:51:56;;;;;;;2.53;1.75;;;5.20;73.80;;;;;;5001154;28;20042;-60
2023/12/30 01:54:22;;;;;;;3.20;2.17;;;5.20;73.80;;;;;;4999856;28;20516;-59
2023/12/30 01:56:49;;;;;;;3.75;1.77;;;5.20;74.00;;;;;;4998302;28;20061;-61
2023/12/30 01:59:18;;;;;;;2.38;1.65;;;5.20;74.10;;;;;;5001978;28;20038;-59
2023/12/30 02:01:47;;;;;;;4.13;1.75;;;5.20;74.30;;;;;;4983901;28;20057;-60
2023/12/30 02:04:13;;;;;;;4.25;1.50;;;5.20;74.50;;;;;;5007112;28;20392;-59
2023/12/30 02:06:39;;;;;;;2.13;1.52;;;5.20;74.80;;;;;;4995037;28;20062;-58
2023/12/30 02:09:05;;;;;;;1.95;1.55;;;5.30;75.30;;;;;;5002578;28;20053;-58
2023/12/30 02:11:32;;;;;;;2.67;1.40;;;5.30;75.50;;;;;;5000993;28;20021;-60
2023/12/30 02:13:57;;;;;;;1.98;1.38;;;5.40;75.60;;;;;;5002720;28;20058;-59
2023/12/30 02:16:23;;;;;;;2.28;1.60;;;5.40;75.60;;;;;;5000961;28;20054;-60
2023/12/30 02:18:49;;;;;;;2.83;1.60;;;5.50;75.90;;;;;;4998917;28;20583;-61
2023/12/30 02:21:14;;;;;;;1.95;1.45;;;5.60;76.50;;;;;;5002347;28;20531;-59
2023/12/30 02:23:40;;;;;;;5.68;1.70;;;5.70;76.40;;;;;;4999815;28;20029;-59
2023/12/30 02:26:07;;;;;;;3.58;1.65;;;5.70;76.50;;;;;;5002961;28;20523;-60
2023/12/30 02:28:33;;;;;;;3.10;1.58;;;5.80;76.50;;;;;;5006473;28;20395;-59
2023/12/30 02:30:59;;;;;;;4.07;1.42;;;5.90;76.40;;;;;;4998181;28;20680;-60
2023/12/30 02:33:24;;;;;;;2.33;1.60;;;5.90;76.40;;;;;;4993264;28;20062;-59
2023/12/30 02:35:51;;;;;;;2.03;1.38;;;6.00;76.30;;;;;;4999173;28;20109;-59
2023/12/30 02:38:17;;;;;;;1.80;1.48;;;6.10;76.50;;;;;;5002017;28;20040;-59
2023/12/30 02:40:43;;;;;;;2.85;2.03;;;6.10;76.60;;;;;;5003694;28;20026;-60
2023/12/30 02:43:09;;;;;;;2.95;1.60;;;6.20;76.70;;;;;;5007216;28;20033;-61
2023/12/30 02:45:35;;;;;;;2.47;1.70;;;6.30;76.90;;;;;;5000654;28;20025;-59
2023/12/30 02:48:02;;;;;;;1.40;1.30;;;6.40;77.10;;;;;;5007023;28;20469;-60
2023/12/30 02:50:28;;;;;;;3.25;1.45;;;6.50;77.00;;;;;;5007986;28;20574;-60
2023/12/30 02:52:53;;;;;;;2.08;1.80;;;6.60;77.10;;;;;;5003701;28;20038;-60
2023/12/30 02:55:19;;;;;;;2.30;1.70;;;6.70;77.20;;;;;;5005460;28;20038;-61
2023/12/30 02:57:45;;;;;;;2.05;1.63;;;6.70;77.10;;;;;;5009643;28;20407;-58
2023/12/30 03:00:11;;;;;;;2.67;1.75;;;6.80;76.90;;;;;;5005563;28;20029;-59
2023/12/30 03:02:37;;;;;;;1.60;1.50;;;6.90;76.80;;;;;;4988453;28;20030;-59
2023/12/30 03:05:03;;;;;;;2.47;1.48;;;7.00;76.80;;;;;;5002481;28;20161;-58
2023/12/30 03:07:29;;;;;;;3.90;1.48;;;7.10;76.70;;;;;;5004407;28;20504;-60
2023/12/30 03:09:55;;;;;;;1.60;1.30;;;7.20;76.50;;;;;;5006508;28;20053;-59
2023/12/30 03:12:20;;;;;;;2.50;1.20;;;7.20;76.30;;;;;;4983872;28;20503;-59
2023/12/30 03:14:46;;;;;;;1.83;1.60;;;7.30;76.20;;;;;;4999152;28;20715;-59
2023/12/30 03:17:12;;;;;;;1.40;1.30;;;7.30;76.10;;;;;;5001873;28;20443;-59
2023/12/30 03:19:37;;;;;;;1.80;1.15;;;7.40;75.90;;;;;;5005311;28;20061;-59
2023/12/30 03:22:03;;;;;;;1.48;1.20;;;7.40;75.70;;;;;;5000960;28;20038;-60
2023/12/30 03:24:29;;;;;;;2.05;1.40;;;7.50;75.60;;;;;;5006334;28;20026;-60
2023/12/30 03:26:54;;;;;;;2.03;1.35;;;7.50;75.40;;;;;;4984694;28;20452;-59
2023/12/30 03:29:20;;;;;;;1.88;1.40;;;7.60;75.30;;;;;;4987848;28;20044;-59
2023/12/30 03:31:46;;;;;;;2.03;1.38;;;7.60;75.20;;;;;;5007597;28;20041;-59
2023/12/30 03:34:12;;;;;;;1.58;1.38;;;7.60;75.10;;;;;;5000082;28;20042;-60
2023/12/30 03:36:37;;;;;;;1.92;1.27;;;7.70;75.00;;;;;;5001969;28;20032;-59
2023/12/30 03:39:04;;;;;;;3.63;1.20;;;7.70;75.00;;;;;;5009830;28;20471;-59
2023/12/30 03:41:29;;;;;;;1.52;1.38;;;7.70;74.70;;;;;;5005520;28;20034;-59
2023/12/30 03:43:55;;;;;;;2.10;1.90;;;7.80;74.70;;;;;;5003389;28;20624;-60
2023/12/30 03:46:22;;;;;;;2.00;1.50;;;7.80;74.60;;;;;;5002340;28;20033;-59
2023/12/30 03:48:48;;;;;;;1.83;1.40;;;7.80;74.50;;;;;;4988712;28;20393;-60
2023/12/30 03:51:14;;;;;;;1.70;1.23;;;7.80;74.30;;;;;;5002690;28;20034;-60
2023/12/30 03:53:40;;;;;;;1.45;1.20;;;7.90;74.20;;;;;;5005932;28;20623;-60
2023/12/30 03:56:06;;;;;;;1.48;1.33;;;7.90;74.10;;;;;;5007445;28;20025;-59
2023/12/30 03:58:31;;;;;;;3.75;1.48;;;7.90;74.00;;;;;;5004196;28;20026;-59
2023/12/30 04:00:57;;;;;;;1.70;1.40;;;7.90;73.90;;;;;;4984475;28;20042;-59
2023/12/30 04:03:22;;;;;;;1.55;1.45;;;8.00;73.90;;;;;;5001853;28;20038;-59
2023/12/30 04:05:48;;;;;;;1.63;1.40;;;8.00;73.70;;;;;;5004838;28;20073;-59
2023/12/30 04:08:16;;;;;;;1.35;1.25;;;8.00;73.70;;;;;;5001912;28;20079;-59
2023/12/30 04:10:42;;;;;;;2.00;1.10;;;8.00;73.60;;;;;;5004301;28;20041;-58
2023/12/30 04:13:09;;;;;;;2.13;1.20;;;8.10;73.50;;;;;;4995054;28;20050;-59
2023/12/30 04:15:34;;;;;;;2.90;1.50;;;8.10;73.40;;;;;;5006715;28;20765;-59
2023/12/30 04:18:00;;;;;;;1.20;1.10;;;8.10;73.20;;;;;;5004166;28;20128;-60
2023/12/30 04:20:26;;;;;;;3.75;1.20;;;8.10;73.20;;;;;;5002946;28;20034;-60
2023/12/30 04:22:51;;;;;;;2.83;1.25;;;8.20;73.10;;;;;;5003905;28;20041;-60
2023/12/30 04:25:17;;;;;;;2.20;1.17;;;8.20;72.90;;;;;;5002394;28;20109;-60
2023/12/30 04:27:42;;;;;;;3.30;1.15;;;8.20;72.90;;;;;;4996223;28;20025;-58
2023/12/30 04:30:08;;;;;;;1.60;1.17;;;8.20;72.70;;;;;;5005104;28;20042;-59
2023/12/30 04:32:34;;;;;;;4.53;1.33;;;8.30;72.70;;;;;;5004320;28;20108;-59
2023/12/30 04:35:00;;;;;;;1.35;1.25;;;8.30;72.60;;;;;;5008350;28;20034;-59
2023/12/30 04:37:25;;;;;;;2.45;1.45;;;8.30;72.50;;;;;;5003746;28;20037;-59
2023/12/30 04:39:51;;;;;;;1.95;1.20;;;8.30;72.40;;;;;;5004706;28;20690;-59
2023/12/30 04:42:16;;;;;;;2.95;1.58;;;8.30;72.30;;;;;;5004165;28;20086;-59
2023/12/30 04:44:42;;;;;;;2.00;1.80;;;8.40;72.30;;;;;;5002947;28;20042;-58
2023/12/30 04:47:08;;;;;;;1.60;1.50;;;8.40;72.20;;;;;;4915551;28;20030;-60
2023/12/30 04:49:34;;;;;;;2.50;1.30;;;8.40;72.20;;;;;;5004625;28;20037;-60
2023/12/30 04:52:00;;;;;;;2.53;1.40;;;8.40;72.20;;;;;;5003244;28;20076;-60
2023/12/30 04:54:26;;;;;;;3.00;1.50;;;8.40;72.10;;;;;;5002333;28;20050;-60
2023/12/30 04:56:52;;;;;;;1.65;1.40;;;8.40;72.00;;;;;;5000699;28;20477;-60
2023/12/30 04:59:18;;;;;;;3.72;1.80;;;8.40;71.90;;;;;;5003458;28;20037;-60
2023/12/30 05:01:43;;;;;;;1.55;1.42;;;8.50;72.00;;;;;;5002433;28;20512;-60
2023/12/30 05:04:09;;;;;;;2.55;1.50;;;8.50;71.90;;;;;;5002845;28;20034;-60
2023/12/30 05:06:34;;;;;;;2.88;1.60;;;8.50;71.90;;;;;;5007112;28;20037;-60
2023/12/30 05:09:01;;;;;;;2.28;1.52;;;8.50;71.80;;;;;;5002909;28;20653;-60
2023/12/30 05:11:26;;;;;;;2.10;1.40;;;8.50;71.80;;;;;;5001954;28;20018;-60
2023/12/30 05:13:52;;;;;;;2.13;1.40;;;8.50;71.80;;;;;;5003531;28;20030;-60
2023/12/30 05:16:18;;;;;;;1.35;1.17;;;8.50;71.60;;;;;;5006747;28;20129;-60
2023/12/30 05:18:43;;;;;;;1.73;1.10;;;8.60;71.70;;;;;;4988549;28;20113;-60
2023/12/30 05:21:14;;;;;;;2.20;1.27;;;8.60;71.70;;;;;;5001284;28;20030;-59
2023/12/30 05:23:40;;;;;;;3.40;1.20;;;8.60;71.70;;;;;;5003699;28;20030;-59
2023/12/30 05:26:06;;;;;;;3.58;1.38;;;8.60;71.70;;;;;;5001890;28;20113;-59
2023/12/30 05:28:32;;;;;;;2.55;1.48;;;8.60;71.70;;;;;;5003827;28;20033;-59
2023/12/30 05:30:57;;;;;;;2.75;1.20;;;8.60;71.70;;;;;;4998683;28;20029;-58
2023/12/30 05:33:23;;;;;;;2.33;0.90;;;8.60;71.60;;;;;;5003322;28;20097;-59
2023/12/30 05:35:50;;;;;;;1.90;0.95;;;8.70;71.70;;;;;;4999797;28;20021;-58
2023/12/30 05:38:16;;;;;;;1.77;0.90;;;8.70;71.70;;;;;;5003316;28;20037;-59
2023/12/30 05:40:42;;;;;;;4.45;1.77;;;8.70;71.70;;;;;;5004344;28;20029;-60
2023/12/30 05:43:08;;;;;;;1.73;1.20;;;8.70;71.70;;;;;;5004008;28;20041;-60
2023/12/30 05:45:34;;;;;;;2.45;1.48;;;8.70;71.70;;;;;;4939344;28;21125;-59
2023/12/30 05:48:02;;;;;;;4.60;1.70;;;8.70;71.70;;;;;;5001959;28;20040;-59
2023/12/30 05:50:28;;;;;;;4.32;1.70;;;8.80;71.80;;;;;;5000998;28;20118;-59
2023/12/30 05:52:54;;;;;;;2.20;0.98;;;8.80;71.80;;;;;;5005997;28;20033;-59
2023/12/30 05:55:20;;;;;;;0.98;0.88;;;8.80;71.80;;;;;;4978160;28;20042;-61
2023/12/30 05:57:46;;;;;;;2.65;1.10;;;8.80;71.90;;;;;;4985420;28;20030;-60
2023/12/30 06:00:13;;;;;;;2.03;1.10;;;8.80;71.90;;;;;;4986862;28;20776;-60
2023/12/30 06:02:40;;;;;;;2.20;1.10;;;8.80;72.00;;;;;;4980883;28;20045;-60
2023/12/30 06:05:06;;;;;;;3.08;0.90;;;8.90;72.00;;;;;;4983198;28;20038;-60
2023/12/30 06:07:31;;;;;;;1.95;1.13;;;8.90;72.10;;;;;;4980946;28;20030;-59
2023/12/30 06:09:57;;;;;;;0.98;0.70;;;8.90;72.10;;;;;;4988202;28;20034;-62
2023/12/30 06:12:23;;;;;;;2.08;0.77;;;8.90;72.10;;;;;;4982861;28;20045;-60
2023/12/30 06:14:49;;;;;;;1.25;0.70;;;9.00;72.20;;;;;;4984015;28;20054;-58
2023/12/30 06:17:15;;;;;;;2.03;0.85;;;9.00;72.20;;;;;;4987717;28;20030;-60
2023/12/30 06:19:40;;;;;;;2.28;1.50;;;9.00;72.20;;;;;;4985479;28;20046;-60
2023/12/30 06:22:06;;;;;;;1.08;0.82;;;9.00;72.20;;;;;;4986204;28;20034;-60
2023/12/30 06:24:33;;;;;;;5.05;1.10;;;9.00;72.30;;;;;;4987735;28;20033;-60
2023/12/30 06:26:59;;;;;;;1.17;0.75;;;9.00;72.40;;;;;;4981223;28;20624;-60
2023/12/30 06:29:27;;;;;;;3.25;0.88;;;9.10;72.30;;;;;;4986355;28;20030;-60
2023/12/30 06:31:53;;;;;;;1.95;0.75;;;9.10;72.40;;;;;;4988467;28;20080;-58
2023/12/30 06:34:19;;;;;;;1.65;0.88;;;9.10;72.40;;;;;;4986820;28;20489;-59
2023/12/30 06:36:46;;;;;;;1.15;0.90;;;9.10;72.50;;;;;;4983511;28;20038;-59
2023/12/30 06:39:13;;;;;;;0.90;0.70;;;9.10;72.50;;;;;;4985232;28;20029;-59
2023/12/30 06:41:42;;;;;;;1.55;0.85;;;9.10;72.60;;;;;;4990173;28;20035;-59
2023/12/30 06:44:08;;;;;;;3.15;0.90;;;9.10;72.60;;;;;;4985947;28;20036;-59
2023/12/30 06:46:34;;;;;;;0.68;0.65;;;9.20;72.60;;;;;;4885022;28;20030;-59
2023/12/30 06:49:01;;;;;;;0.95;0.80;;;9.20;72.70;;;;;;4987889;28;20042;-59
2023/12/30 06:51:27;;;;;;;1.10;0.70;;;9.20;72.70;;;;;;4983626;28;20557;-58
2023/12/30 06:53:53;;;;;;;2.55;0.80;;;9.20;72.70;;;;;;4983267;28;20054;-59
2023/12/30 06:56:19;;;;;;;2.28;0.80;;;9.20;72.80;;;;;;4987498;28;20066;-58
2023/12/30 06:58:45;;;;;;;2.70;0.80;;;9.20;72.90;;;;;;4982727;28;20137;-59
2023/12/30 07:01:12;;;;;;;4.78;0.90;;;9.20;73.00;;;;;;4987610;28;20093;-59
2023/12/30 07:03:37;;;;;;;0.93;0.68;;;9.20;73.00;;;;;;4984130;28;20492;-60
2023/12/30 07:06:03;;;;;;;1.83;0.80;;;9.30;73.30;;;;;;4985773;28;20057;-59
2023/12/30 07:08:29;;;;;;;2.58;0.75;;;9.30;73.50;;;;;;4982300;28;20042;-59
2023/12/30 07:10:54;;;;;;;3.22;0.82;;;9.30;73.40;;;;;;4990896;28;20034;-60
2023/12/30 07:13:20;;;;;;;1.50;0.70;;;9.30;73.60;;;;;;4984911;28;20070;-61
2023/12/30 07:15:47;;;;;;;3.47;0.90;;;9.20;73.50;;;;;;4986713;28;20027;-60
2023/12/30 07:18:13;;;;;;;2.92;1.02;;;9.30;73.80;;;;;;4967210;28;20118;-60
2023/12/30 07:20:38;;;;;;;4.35;1.50;;;9.30;73.90;;;;;;4987780;28;20113;-60
2023/12/30 07:23:05;;;;;;;2.80;1.70;;;9.30;74.20;;;;;;4983377;28;20419;-60
2023/12/30 07:25:31;;;;;;;2.47;1.30;;;9.30;74.30;;;;;;4984709;28;20040;-59
2023/12/30 07:27:57;;;;;;;7.65;2.15;;;9.30;74.40;;;;;;4984453;28;20065;-59
2023/12/30 07:30:23;;;;;;;6.50;2.67;;;9.30;74.50;;;;;;4987911;28;20129;-62
2023/12/30 07:32:50;;;;;;;3.83;2.28;;;9.30;74.70;;;;;;4979837;28;20050;-61
2023/12/30 07:35:16;;;;;;;7.45;3.92;;;9.30;74.70;;;;;;4985594;28;20035;-61
2023/12/30 07:37:43;;;;;;;6.15;2.80;;;9.30;74.90;;;;;;4987710;28;20037;-61
2023/12/30 07:40:09;;;;;;;3.97;2.47;;;9.40;75.00;;;;;;4986449;28;20034;-61
2023/12/30 07:42:35;;;;;;;6.85;2.60;;;9.30;75.00;;;;;;4984329;28;20026;-62
2023/12/30 07:45:01;;;;;;;4.60;2.28;;;9.40;75.10;;;;;;4987841;28;20810;-63
2023/12/30 07:47:27;;;;;;;5.15;2.58;;;9.40;75.10;;;;;;4923359;28;20037;-62
2023/12/30 07:49:53;;;;;;;5.57;2.97;;;9.40;75.20;;;;;;4988595;28;20041;-62
2023/12/30 07:52:19;;;;;;;4.68;2.75;;;9.50;75.20;;;;;;4983978;28;20046;-64
2023/12/30 07:54:45;;;;;;;8.43;3.88;;;9.50;75.30;;;;;;4999450;28;20113;-62
2023/12/30 07:57:11;;;;;;;12.15;4.50;;;9.50;75.50;;;;;;5002706;28;20463;-62
2023/12/30 07:59:36;;;;;;;18.25;6.88;;;9.50;75.30;;;;;;5006802;28;20040;-62
2023/12/30 08:02:02;;;;;;;7.20;4.20;;;9.50;75.30;;;;;;5005316;28;20491;-62
2023/12/30 08:04:28;;;;;;;6.93;3.30;;;9.50;75.30;;;;;;5006116;28;20113;-62
2023/12/30 08:06:54;;;;;;;3.85;1.60;;;9.50;75.40;;;;;;5007378;28;20076;-62
2023/12/30 08:09:22;;;;;;;5.90;2.03;;;9.60;75.40;;;;;;5004723;28;20025;-61
2023/12/30 08:11:48;;;;;;;6.28;2.80;;;9.60;75.30;;;;;;5001866;28;20041;-61
2023/12/30 08:14:15;;;;;;;8.98;4.95;;;9.60;75.40;;;;;;4981963;28;20695;-61
2023/12/30 08:16:40;;;;;;;5.60;3.35;;;9.60;75.40;;;;;;5001327;28;20442;-62
2023/12/30 08:19:06;;;;;;;7.80;5.90;;;9.60;75.40;;;;;;4998157;28;20030;-61
2023/12/30 08:21:32;;;;;;;5.10;3.95;;;9.60;75.50;;;;;;5003918;28;20053;-62
2023/12/30 08:23:58;;;;;;;4.82;3.50;;;9.70;75.70;;;;;;5006258;28;20435;-61
2023/12/30 08:26:25;;;;;;;5.00;3.60;;;9.70;75.70;;;;;;5003056;28;21041;-62
2023/12/30 08:28:51;;;;;;;4.32;2.65;;;9.70;75.70;;;;;;5000650;28;20720;-62
2023/12/30 08:31:18;;;;;;;2.00;1.73;;;9.80;75.80;;;;;;5002081;28;20030;-62
2023/12/30 08:33:44;;;;;;;3.80;2.50;;;9.80;75.80;;;;;;5003311;28;20033;-62
2023/12/30 08:36:10;;;;;;;5.28;1.80;;;9.90;75.90;;;;;;4986295;28;20488;-62
2023/12/30 08:38:36;;;;;;;2.28;1.70;;;9.90;75.80;;;;;;5004661;28;20040;-61
2023/12/30 08:41:02;;;;;;;3.55;1.90;;;10.00;75.80;;;;;;5007972;28;20022;-62
2023/12/30 08:43:30;;;;;;;5.93;1.75;;;10.10;75.80;;;;;;5005029;28;20021;-62
2023/12/30 08:45:56;;;;;;;2.25;1.60;;;10.10;76.00;;;;;;4920949;28;20029;-61
2023/12/30 08:48:22;;;;;;;4.40;1.63;;;10.20;76.20;;;;;;5002096;28;20419;-61
2023/12/30 08:50:48;;;;;;;3.92;1.83;;;10.40;76.20;;;;;;5000147;28;20109;-62
2023/12/30 08:53:15;;;;;;;4.82;1.33;;;10.50;76.60;;;;;;5001624;28;20056;-62
2023/12/30 08:55:41;;;;;;;1.85;1.27;;;10.70;77.30;;;;;;5000521;28;20033;-62
2023/12/30 08:58:07;;;;;;;1.65;0.98;;;10.80;77.50;;;;;;5001295;28;20440;-62
2023/12/30 09:00:34;;;;;;;1.50;1.20;;;11.00;77.40;;;;;;5000517;28;20038;-62
2023/12/30 09:02:59;;;;;;;6.43;1.30;;;11.30;77.20;;;;;;5000533;28;20037;-62
2023/12/30 09:05:25;;;;;;;9.63;6.88;;;11.40;76.90;;;;;;5007060;28;20037;-62
2023/12/30 09:07:52;;;;;;;3.92;3.00;;;11.70;76.30;;;;;;5006353;28;20041;-62
2023/12/30 09:10:19;;;;;;;10.05;6.60;;;11.80;75.30;;;;;;5003907;28;20029;-62
2023/12/30 09:12:45;;;;;;;5.57;4.00;;;12.00;75.30;;;;;;5000974;28;20451;-62
2023/12/30 09:15:11;;;;;;;6.28;3.15;;;12.10;74.20;;;;;;5001508;28;20400;-61
2023/12/30 09:17:37;;;;;;;6.90;4.18;;;12.20;73.50;;;;;;5005396;28;20034;-61
2023/12/30 09:20:03;;;;;;;4.68;2.80;;;12.30;73.80;;;;;;5002651;28;20534;-61
2023/12/30 09:22:29;;;;;;;8.10;3.53;;;12.40;72.90;;;;;;5004453;28;20034;-61
2023/12/30 09:24:56;;;;;;;5.90;4.20;;;12.40;72.50;;;;;;4982905;28;20439;-61
2023/12/30 09:27:22;;;;;;;7.65;5.07;;;12.40;72.00;;;;;;5002632;28;20121;-62
2023/12/30 09:29:48;;;;;;;10.98;5.90;;;12.50;71.60;;;;;;5000949;28;20046;-61
2023/12/30 09:32:15;;;;;;;8.77;5.70;;;12.50;71.60;;;;;;5001027;28;20026;-62
2023/12/30 09:34:40;;;;;;;4.13;2.30;;;12.50;71.40;;;;;;4997716;28;20026;-61
2023/12/30 09:37:06;;;;;;;3.22;2.47;;;12.50;72.00;;;;;;5000697;28;20041;-62
2023/12/30 09:39:32;;;;;;;3.80;1.70;;;12.50;71.30;;;;;;5002056;28;20026;-63
2023/12/30 09:41:57;;;;;;;2.92;2.03;;;12.50;71.40;;;;;;5000394;28;20061;-61
2023/12/30 09:44:25;;;;;;;1.50;1.40;;;12.60;71.40;;;;;;4994489;28;20080;-62
2023/12/30 09:46:52;;;;;;;2.35;1.20;;;12.60;71.20;;;;;;4904157;28;20026;-62
2023/12/30 09:49:19;;;;;;;1.52;1.13;;;12.60;71.00;;;;;;4998331;28;20071;-62
2023/12/30 09:51:45;;;;;;;1.25;0.90;;;12.70;70.90;;;;;;4976742;28;20454;-62
2023/12/30 09:54:10;;;;;;;2.45;0.90;;;12.70;70.90;;;;;;4997705;28;20046;-62
2023/12/30 09:56:36;;;;;;;1.55;0.90;;;12.80;70.70;;;;;;4999349;28;20036;-62
2023/12/30 09:59:03;;;;;;;1.38;0.80;;;12.80;70.50;;;;;;5000350;28;20533;-62
2023/12/30 10:01:30;;;;;;;0.77;0.73;;;12.80;70.30;;;;;;4999418;28;20646;-62
2023/12/30 10:03:56;;;;;;;1.67;0.88;;;12.90;70.20;;;;;;4983301;28;20112;-62
2023/12/30 10:06:23;;;;;;;1.63;1.10;;;12.90;69.90;;;;;;5001162;28;20576;-62
2023/12/30 10:08:49;;;;;;;2.53;1.10;;;13.00;69.50;;;;;;5001410;28;20053;-62
2023/12/30 10:11:16;;;;;;;3.08;1.85;;;13.00;69.60;;;;;;4994341;28;20613;-62
2023/12/30 10:13:42;;;;;;;1.83;1.50;;;13.00;69.30;;;;;;4993838;28;20038;-62
2023/12/30 10:16:08;;;;;;;1.55;1.00;;;13.00;69.60;;;;;;4998249;28;20061;-62
2023/12/30 10:18:36;;;;;;;1.50;0.75;;;13.10;69.60;;;;;;5015826;28;20549;-62
2023/12/30 10:21:03;;;;;;;1.23;0.80;;;13.20;69.40;;;;;;5012810;28;20351;-62
2023/12/30 10:23:34;;;;;;;1.27;0.77;;;13.30;69.80;;;;;;5007168;28;20025;-62
2023/12/30 10:26:02;;;;;;;1.90;1.30;;;13.40;69.50;;;;;;5002245;28;20109;-62
2023/12/30 10:28:28;;;;;;;1.40;1.08;;;13.50;69.30;;;;;;4998132;28;20523;-61
2023/12/30 10:31:05;;;;;;;2.42;1.20;;;13.60;69.20;;;;;;4998166;28;20030;-61
2023/12/30 10:33:32;;;;;;;3.10;1.25;;;13.70;68.30;;;;;;4996126;28;20068;-61
2023/12/30 10:35:58;;;;;;;1.65;1.00;;;13.80;68.40;;;;;;4995418;28;20113;-61
2023/12/30 10:38:25;;;;;;;0.98;0.77;;;13.90;67.60;;;;;;4998107;28;20034;-61
2023/12/30 10:40:51;;;;;;;2.45;0.90;;;13.90;66.70;;;;;;4998280;28;20516;-61
2023/12/30 10:43:20;;;;;;;2.63;0.82;;;13.90;67.00;;;;;;4991600;28;20157;-61
2023/12/30 10:45:58;;;;;;;1.90;0.70;;;13.90;67.10;;;;;;4991874;28;20785;-61
2023/12/30 10:48:29;;;;;;;6.07;0.80;;;14.00;65.90;;;;;;4904609;28;20776;-63
2023/12/30 10:50:56;;;;;;;1.83;0.80;;;14.10;66.00;;;;;;4992549;28;20071;-61
2023/12/30 10:53:39;;;;;;;1.13;0.80;;;14.10;65.50;;;;;;4995399;28;20112;-61
2023/12/30 10:56:08;;;;;;;0.95;0.60;;;14.10;64.80;;;;;;5000219;28;20030;-61
2023/12/30 10:58:37;;;;;;;1.48;0.70;;;14.20;64.90;;;;;;4997551;28;20034;-61
2023/12/30 11:01:04;;;;;;;0.60;0.52;;;14.20;64.90;;;;;;5001971;28;20030;-62
2023/12/30 11:03:32;;;;;;;2.22;0.75;;;14.20;64.60;;;;;;5008890;28;20483;-61
2023/12/30 11:06:39;;;;;;;0.60;0.60;;;14.20;64.40;;;;;;5003641;28;20113;-61
2023/12/30 11:09:09;;;;;;;0.63;0.50;;;14.20;63.30;;;;;;5002562;28;20060;-61
2023/12/30 11:11:39;;;;;;;2.33;0.70;;;14.20;63.20;;;;;;5002418;28;20065;-61
2023/12/30 11:14:12;;;;;;;0.60;0.57;;;14.30;63.60;;;;;;5004442;28;20046;-61
2023/12/30 11:16:37;;;;;;;1.90;0.70;;;14.30;63.20;;;;;;5006093;28;20037;-61
2023/12/30 11:19:04;;;;;;;1.05;0.50;;;14.20;63.50;;;;;;5003357;28;20040;-61
2023/12/30 11:21:40;;;;;;;0.85;0.68;;;14.20;62.40;;;;;;4994564;28;20036;-60
2023/12/30 11:24:15;;;;;;;1.45;0.60;;;14.10;61.30;;;;;;4992801;28;20087;-61
2023/12/30 11:26:42;;;;;;;0.77;0.60;;;14.10;60.60;;;;;;4997460;28;20030;-61
2023/12/30 11:29:27;;;;;;;1.30;0.60;;;14.10;62.00;;;;;;4996790;28;20121;-62
2023/12/30 11:31:55;;;;;;;1.58;0.80;;;14.10;60.60;;;;;;5003784;28;20081;-61
2023/12/30 11:34:21;;;;;;;2.85;0.73;;;14.10;62.20;;;;;;4982462;28;20045;-61
2023/12/30 11:36:49;;;;;;;3.30;0.75;;;14.10;62.40;;;;;;4996000;28;20088;-61
2023/12/30 11:39:38;;;;;;;2.72;0.70;;;14.10;61.60;;;;;;4992061;28;20476;-61
2023/12/30 11:42:05;;;;;;;1.15;0.77;;;14.10;60.70;;;;;;4990979;28;20455;-61
2023/12/30 11:44:32;;;;;;;3.42;0.85;;;14.10;61.70;;;;;;4997390;28;21851;-60
2023/12/30 11:46:58;;;;;;;1.23;0.60;;;14.10;61.70;;;;;;4918949;28;20023;-61
2023/12/30 11:49:26;;;;;;;1.40;0.60;;;14.20;61.20;;;;;;4994701;28;20026;-61
2023/12/30 11:52:04;;;;;;;1.00;0.60;;;14.20;61.10;;;;;;4991009;28;20057;-63
2023/12/30 11:54:32;;;;;;;1.25;0.50;;;14.30;60.70;;;;;;5003773;28;20037;-61
2023/12/30 11:56:57;;;;;;;1.05;0.60;;;14.30;61.20;;;;;;5007136;28;20065;-61
2023/12/30 11:59:23;;;;;;;3.05;0.73;;;14.40;61.00;;;;;;5006076;28;20027;-61
2023/12/30 12:01:49;;;;;;;1.65;0.60;;;14.50;60.10;;;;;;5004536;28;20022;-61
2023/12/30 12:04:16;;;;;;;1.25;0.60;;;14.50;59.70;;;;;;4998344;28;20102;-61
2023/12/30 12:06:41;;;;;;;1.92;0.70;;;14.50;58.60;;;;;;5002004;28;20022;-61
2023/12/30 12:09:07;;;;;;;1.55;0.77;;;14.50;59.00;;;;;;4983725;28;20038;-60
2023/12/30 12:11:33;;;;;;;3.30;0.65;;;14.50;59.50;;;;;;5001317;28;20029;-61
2023/12/30 12:13:59;;;;;;;1.95;0.80;;;14.40;59.70;;;;;;4999118;28;20100;-62
2023/12/30 12:16:27;;;;;;;1.40;0.70;;;14.30;60.10;;;;;;5003809;28;20125;-62
2023/12/30 12:18:54;;;;;;;2.60;0.80;;;14.40;60.10;;;;;;5001319;28;20108;-60
2023/12/30 12:21:20;;;;;;;1.05;0.70;;;14.40;59.80;;;;;;5001543;28;20022;-62
2023/12/30 12:23:46;;;;;;;1.30;0.70;;;14.30;59.30;;;;;;5009737;28;20485;-63
2023/12/30 12:26:12;;;;;;;1.27;0.73;;;14.30;59.40;;;;;;5004805;28;20038;-60
2023/12/30 12:28:39;;;;;;;1.42;0.73;;;14.20;59.50;;;;;;4992090;28;21458;-61
2023/12/30 12:31:08;;;;;;;2.35;0.80;;;14.20;59.80;;;;;;4974890;28;20052;-61
2023/12/30 12:33:34;;;;;;;1.85;0.70;;;14.10;59.70;;;;;;4993801;28;20042;-61
2023/12/30 12:36:00;;;;;;;2.00;1.05;;;14.20;59.80;;;;;;5006609;28;20029;-61
2023/12/30 12:38:27;;;;;;;2.05;1.13;;;14.10;59.70;;;;;;4984191;28;20042;-61
2023/12/30 12:40:53;;;;;;;2.25;0.82;;;14.10;59.80;;;;;;4997426;28;20034;-61
2023/12/30 12:43:18;;;;;;;3.30;0.77;;;14.00;59.90;;;;;;5004696;28;20060;-61
2023/12/30 12:45:44;;;;;;;4.25;0.90;;;14.00;60.10;;;;;;4925558;28;20030;-61
2023/12/30 12:48:10;;;;;;;0.98;0.60;;;14.00;60.30;;;;;;4997851;28;20113;-63
2023/12/30 12:50:36;;;;;;;0.60;0.57;;;14.10;59.90;;;;;;5003766;28;20072;-63